Time;durP1;ratioP1;P1;durP2;ratioP2;P2;SDS_P1;SDS_P2;PMS_P1;PMS_P2;Temp;Humidity;BMP_temperature;BMP_pressure;BME280_temperature;BME280_humidity;BME280_pressure;Samples;Min_cycle;Max_cycle;Signal;HPM_P1;HPM_P2
2023/02/01 00:02:20;;;;;;;18.30;6.77;;;;;6.30;101698.00;;;;10107788;29;20263;-78
2023/02/01 00:07:22;;;;;;;16.03;5.57;;;;;6.30;101675.00;;;;10112956;29;20228;-78
2023/02/01 00:12:24;;;;;;;16.70;6.37;;;;;6.20;101673.00;;;;10105126;29;20210;-77
2023/02/01 00:17:26;;;;;;;16.50;6.67;;;;;6.20;101680.00;;;;10100846;29;20204;-78
2023/02/01 00:22:30;;;;;;;19.00;6.17;;;;;6.20;101670.00;;;;10073955;29;20203;-79
2023/02/01 00:27:32;;;;;;;20.53;6.37;;;;;6.20;101668.00;;;;10081063;29;20271;-77
2023/02/01 00:32:35;;;;;;;13.73;5.43;;;;;6.30;101646.00;;;;10110865;29;20204;-78
2023/02/01 00:37:37;;;;;;;18.27;5.60;;;;;6.30;101666.00;;;;10101430;29;20203;-78
2023/02/01 00:42:39;;;;;;;14.07;5.63;;;;;6.40;101625.00;;;;10108888;29;20203;-78
2023/02/01 00:47:41;;;;;;;18.60;6.30;;;;;6.30;101638.00;;;;10090145;29;20310;-78
2023/02/01 00:52:43;;;;;;;17.80;6.67;;;;;6.30;101636.00;;;;10093172;29;20237;-78
2023/02/01 00:57:45;;;;;;;19.13;5.50;;;;;6.20;101629.00;;;;10092521;29;20231;-78
2023/02/01 01:02:46;;;;;;;12.97;5.43;;;;;6.20;101644.00;;;;10122101;29;20205;-77
2023/02/01 01:07:49;;;;;;;17.83;6.00;;;;;6.20;101642.00;;;;10104430;29;20259;-78
2023/02/01 01:12:51;;;;;;;11.67;4.93;;;;;6.20;101656.00;;;;10073345;29;20204;-78
2023/02/01 01:17:55;;;;;;;16.87;4.47;;;;;6.30;101650.00;;;;10080639;29;20271;-78
2023/02/01 01:22:57;;;;;;;16.73;4.40;;;;;6.30;101659.00;;;;10104418;29;20204;-78
2023/02/01 01:27:59;;;;;;;15.30;4.13;;;;;6.30;101659.00;;;;10102177;29;20576;-78
2023/02/01 01:33:01;;;;;;;17.53;3.97;;;;;6.30;101665.00;;;;10067530;29;20667;-78
2023/02/01 01:38:03;;;;;;;11.63;3.60;;;;;6.30;101657.00;;;;10114248;29;20616;-77
2023/02/01 01:43:13;;;;;;;15.40;3.53;;;;;6.30;101658.00;;;;10101992;29;20202;-79
2023/02/01 01:48:20;;;;;;;9.10;4.20;;;;;6.20;101673.00;;;;10087531;29;20232;-79
2023/02/01 01:53:28;;;;;;;17.50;4.00;;;;;6.20;101678.00;;;;10073361;29;20206;-77
2023/02/01 01:58:33;;;;;;;14.93;4.07;;;;;6.20;101684.00;;;;10088805;29;20211;-78
2023/02/01 02:03:40;;;;;;;12.80;3.70;;;;;6.10;101677.00;;;;10101624;29;20203;-78
2023/02/01 02:08:42;;;;;;;16.30;4.33;;;;;6.00;101685.00;;;;10116433;29;20228;-77
2023/02/01 02:13:48;;;;;;;20.90;4.17;;;;;5.90;101692.00;;;;10087903;29;20560;-79
2023/02/01 02:19:15;;;;;;;11.67;3.80;;;;;5.80;101690.00;;;;10087116;29;20199;-78
2023/02/01 02:24:43;;;;;;;10.50;2.87;;;;;5.60;101690.00;;;;10102369;29;20247;-78
2023/02/01 02:30:07;;;;;;;13.40;3.50;;;;;5.50;101672.00;;;;10073377;29;20227;-79
2023/02/01 02:35:23;;;;;;;14.03;2.93;;;;;5.50;101671.00;;;;10087330;29;20214;-78
2023/02/01 02:40:32;;;;;;;11.10;2.73;;;;;5.40;101663.00;;;;10080691;29;20279;-78
2023/02/01 03:07:35;;;;;;;7.13;2.97;;;;;5.50;101650.00;;;;10096734;29;20276;-78
2023/02/01 03:12:56;;;;;;;16.27;3.03;;;;;5.40;101645.00;;;;10114157;29;20199;-78
2023/02/01 03:18:04;;;;;;;11.70;2.87;;;;;5.40;101651.00;;;;10087320;29;20207;-77
2023/02/01 03:23:06;;;;;;;14.13;4.20;;;;;5.40;101646.00;;;;10089683;29;20282;-77
2023/02/01 03:28:10;;;;;;;18.17;3.50;;;;;5.40;101643.00;;;;10091545;29;20699;-78
2023/02/01 03:33:21;;;;;;;12.57;3.00;;;;;5.30;101636.00;;;;10082865;29;20907;-78
2023/02/01 03:38:48;;;;;;;9.70;2.40;;;;;5.30;101657.00;;;;10082993;29;20222;-77
2023/02/01 03:44:04;;;;;;;17.47;3.20;;;;;5.30;101652.00;;;;10082282;29;20298;-78
2023/02/01 03:49:10;;;;;;;12.67;2.57;;;;;5.30;101646.00;;;;10097257;29;20231;-78
2023/02/01 03:54:15;;;;;;;11.80;3.13;;;;;5.30;101650.00;;;;10083239;29;20203;-78
2023/02/01 03:59:18;;;;;;;12.77;3.10;;;;;5.30;101646.00;;;;10113773;29;20210;-79
2023/02/01 04:04:20;;;;;;;9.57;2.80;;;;;5.20;101653.00;;;;10097125;29;20274;-78
2023/02/01 04:09:26;;;;;;;15.17;2.90;;;;;5.20;101655.00;;;;10066904;29;20227;-78
2023/02/01 04:14:28;;;;;;;11.73;3.33;;;;;5.10;101653.00;;;;10102289;29;21139;-77
2023/02/01 04:19:30;;;;;;;14.27;4.07;;;;;5.10;101655.00;;;;10066793;29;20203;-78
2023/02/01 04:24:32;;;;;;;10.30;2.73;;;;;5.00;101648.00;;;;10066796;29;20230;-78
2023/02/01 04:29:34;;;;;;;18.03;3.57;;;;;4.90;101654.00;;;;10097672;29;20227;-78
2023/02/01 04:34:38;;;;;;;12.93;3.20;;;;;4.80;101658.00;;;;10113057;29;20297;-78
2023/02/01 04:39:40;;;;;;;13.27;2.93;;;;;4.80;101668.00;;;;10080477;29;20211;-78
2023/02/01 04:44:42;;;;;;;18.27;3.40;;;;;4.80;101653.00;;;;10097750;29;20267;-79
2023/02/01 04:49:44;;;;;;;18.27;3.33;;;;;4.70;101667.00;;;;10079294;29;20230;-79
2023/02/01 04:54:46;;;;;;;16.63;2.87;;;;;4.70;101664.00;;;;10074543;29;20259;-77
2023/02/01 04:59:48;;;;;;;11.73;2.33;;;;;4.70;101667.00;;;;10110961;29;20218;-78
2023/02/01 05:04:50;;;;;;;11.63;3.37;;;;;4.60;101666.00;;;;10068447;29;20268;-79
2023/02/01 05:09:52;;;;;;;17.40;3.13;;;;;4.60;101664.00;;;;10093368;29;20296;-79
2023/02/01 05:14:54;;;;;;;7.87;2.33;;;;;4.60;101660.00;;;;10111565;29;20203;-77
2023/02/01 05:19:56;;;;;;;18.70;4.00;;;;;4.50;101668.00;;;;10088102;29;20263;-78
2023/02/01 05:24:58;;;;;;;10.63;3.73;;;;;4.60;101670.00;;;;10131980;29;20210;-77
2023/02/01 05:30:00;;;;;;;11.60;2.63;;;;;4.50;101652.00;;;;10088475;29;20279;-77
2023/02/01 05:35:02;;;;;;;18.60;4.67;;;;;4.50;101648.00;;;;10107235;29;20845;-78
2023/02/01 05:40:05;;;;;;;18.63;3.80;;;;;4.50;101634.00;;;;10102778;29;20232;-78
2023/02/01 05:45:07;;;;;;;13.33;2.83;;;;;4.30;101634.00;;;;10061135;29;20211;-78
2023/02/01 05:50:10;;;;;;;19.30;3.97;;;;;4.30;101654.00;;;;10116512;29;20223;-79
2023/02/01 05:55:11;;;;;;;21.07;3.90;;;;;4.30;101661.00;;;;10103675;29;20212;-78
2023/02/01 06:00:14;;;;;;;15.77;3.20;;;;;4.30;101668.00;;;;10114863;29;20244;-78
2023/02/01 06:05:19;;;;;;;11.07;2.83;;;;;4.40;101677.00;;;;10073191;29;20213;-77
2023/02/01 06:10:21;;;;;;;15.00;3.60;;;;;4.40;101677.00;;;;10102673;29;20226;-78
2023/02/01 06:15:25;;;;;;;14.93;3.03;;;;;4.30;101687.00;;;;10089011;29;20204;-78
2023/02/01 06:20:27;;;;;;;9.87;2.67;;;;;4.30;101688.00;;;;10072276;29;20200;-78
2023/02/01 06:25:29;;;;;;;15.10;3.73;;;;;4.30;101685.00;;;;10115471;29;20510;-79
2023/02/01 06:30:31;;;;;;;11.63;2.70;;;;;4.30;101678.00;;;;10072272;29;20695;-80
2023/02/01 06:35:33;;;;;;;12.40;3.17;;;;;4.30;101676.00;;;;10102127;29;20204;-78
2023/02/01 06:40:35;;;;;;;13.73;3.13;;;;;4.30;101669.00;;;;10072571;29;20730;-79
2023/02/01 06:45:38;;;;;;;11.37;2.87;;;;;4.40;101670.00;;;;10119892;29;20278;-79
2023/02/01 06:50:40;;;;;;;12.17;2.73;;;;;4.40;101682.00;;;;10116273;29;20239;-79
2023/02/01 06:55:53;;;;;;;12.43;3.13;;;;;4.40;101677.00;;;;10101826;29;20200;-79
2023/02/01 07:00:55;;;;;;;11.40;3.80;;;;;4.30;101674.00;;;;10088343;29;20736;-79
2023/02/01 07:06:00;;;;;;;15.77;3.37;;;;;4.30;101676.00;;;;10086096;29;20741;-78
2023/02/01 07:11:13;;;;;;;21.90;3.63;;;;;4.30;101691.00;;;;10096361;29;20222;-78
2023/02/01 07:16:18;;;;;;;9.70;2.90;;;;;4.40;101692.00;;;;10130253;29;20211;-78
2023/02/01 07:21:21;;;;;;;7.57;2.57;;;;;4.50;101686.00;;;;10077243;29;20742;-78
2023/02/01 07:26:23;;;;;;;13.20;3.37;;;;;4.50;101677.00;;;;10068233;29;20270;-79
2023/02/01 07:31:26;;;;;;;9.20;3.03;;;;;4.60;101679.00;;;;10090726;29;20591;-78
2023/02/01 07:36:28;;;;;;;9.37;2.90;;;;;4.60;101682.00;;;;10067913;29;20630;-79
2023/02/01 07:41:30;;;;;;;14.17;3.13;;;;;4.70;101682.00;;;;10082611;29;20635;-80
2023/02/01 07:46:32;;;;;;;14.53;2.77;;;;;4.70;101689.00;;;;10074921;29;20315;-78
2023/02/01 07:51:34;;;;;;;17.60;2.87;;;;;4.70;101692.00;;;;10068137;29;20235;-79
2023/02/01 07:56:36;;;;;;;9.67;2.53;;;;;4.80;101689.00;;;;10059349;29;20207;-79
2023/02/01 08:01:38;;;;;;;12.43;2.90;;;;;5.00;101700.00;;;;10050851;29;20572;-78
2023/02/01 08:06:40;;;;;;;14.73;3.27;;;;;5.30;101701.00;;;;10097087;29;20314;-78
2023/02/01 08:11:42;;;;;;;14.77;3.30;;;;;5.50;101703.00;;;;10064742;29;20254;-78
2023/02/01 08:16:44;;;;;;;16.00;3.80;;;;;5.70;101713.00;;;;10058167;29;20203;-78
2023/02/01 08:21:48;;;;;;;15.73;4.43;;;;;5.70;101716.00;;;;10072459;29;20206;-78
2023/02/01 08:26:50;;;;;;;14.60;3.70;;;;;5.70;101722.00;;;;10095421;29;20209;-78
2023/02/01 08:31:54;;;;;;;10.63;3.20;;;;;5.80;101725.00;;;;10080716;29;20699;-80
2023/02/01 08:36:59;;;;;;;8.63;3.07;;;;;6.00;101730.00;;;;10081159;29;20207;-78
2023/02/01 08:47:22;;;;;;;27.57;4.23;;;;;6.20;101731.00;;;;10094931;29;20207;-79
2023/02/01 08:52:24;;;;;;;10.47;3.13;;;;;6.40;101721.00;;;;10094750;29;20302;-78
2023/02/01 08:57:26;;;;;;;13.77;3.03;;;;;6.60;101726.00;;;;10077317;29;20667;-79
2023/02/01 09:02:28;;;;;;;14.47;3.67;;;;;6.60;101726.00;;;;10089467;29;20195;-78
2023/02/01 09:07:30;;;;;;;18.17;3.87;;;;;6.60;101722.00;;;;10078036;29;20239;-78
2023/02/01 09:12:33;;;;;;;16.73;3.40;;;;;6.80;101713.00;;;;10104071;29;20211;-78
2023/02/01 09:17:35;;;;;;;12.27;3.30;;;;;7.30;101700.00;;;;10085998;29;20287;-79
2023/02/01 09:22:38;;;;;;;16.37;3.40;;;;;7.30;101708.00;;;;10092695;29;20210;-79
2023/02/01 09:27:40;;;;;;;16.47;3.23;;;;;7.50;101695.00;;;;10101210;29;20224;-78
2023/02/01 09:32:42;;;;;;;12.20;2.83;;;;;8.10;101694.00;;;;10110153;29;20199;-80
2023/02/01 09:37:43;;;;;;;14.00;3.53;;;;;8.50;101701.00;;;;10113317;29;20200;-79
2023/02/01 09:43:07;;;;;;;14.70;3.03;;;;;8.70;101687.00;;;;10102346;29;20208;-79
2023/02/01 09:48:17;;;;;;;13.17;2.90;;;;;9.00;101700.00;;;;10123061;29;20723;-79
2023/02/01 09:53:40;;;;;;;9.23;2.80;;;;;9.30;101696.00;;;;10118992;29;20203;-80
2023/02/01 09:58:47;;;;;;;13.03;2.93;;;;;9.50;101698.00;;;;10087323;29;20220;-81
2023/02/01 10:03:55;;;;;;;16.27;3.00;;;;;9.70;101710.00;;;;10062276;29;20743;-79
2023/02/01 10:09:06;;;;;;;12.07;3.30;;;;;9.90;101694.00;;;;10077185;29;20242;-79
2023/02/01 10:14:28;;;;;;;17.73;3.23;;;;;10.00;101711.00;;;;10094287;29;20195;-82
2023/02/01 10:19:59;;;;;;;19.10;3.67;;;;;10.20;101707.00;;;;10112173;29;20702;-81
2023/02/01 10:25:41;;;;;;;17.10;2.87;;;;;9.90;101714.00;;;;10030856;29;20286;-81
2023/02/01 10:30:46;;;;;;;13.67;3.13;;;;;10.10;101719.00;;;;10042418;29;20219;-80
2023/02/01 10:35:58;;;;;;;13.40;3.17;;;;;10.40;101717.00;;;;10069996;29;20199;-81
2023/02/01 10:41:13;;;;;;;20.03;3.63;;;;;10.70;101713.00;;;;10112147;29;20966;-81
2023/02/01 10:46:16;;;;;;;14.27;3.90;;;;;10.80;101727.00;;;;10063894;29;20787;-81
2023/02/01 10:51:28;;;;;;;13.73;2.90;;;;;11.10;101706.00;;;;10093109;29;20302;-81
2023/02/01 10:56:31;;;;;;;18.03;2.80;;;;;11.40;101712.00;;;;10095273;29;20261;-80
2023/02/01 11:01:42;;;;;;;9.23;2.40;;;;;11.20;101712.00;;;;10061272;29;20208;-81
2023/02/01 11:07:05;;;;;;;7.73;2.50;;;;;11.40;101715.00;;;;10074877;29;20235;-80
2023/02/01 11:12:25;;;;;;;7.40;2.17;;;;;11.70;101701.00;;;;10093651;29;20737;-81
2023/02/01 11:17:41;;;;;;;9.73;2.70;;;;;11.40;101699.00;;;;10097449;29;20210;-79
2023/02/01 11:23:02;;;;;;;9.37;2.37;;;;;11.20;101678.00;;;;10120590;29;20659;-79
2023/02/01 11:28:04;;;;;;;12.40;2.37;;;;;11.00;101670.00;;;;10058178;29;20222;-80
2023/02/01 11:33:12;;;;;;;11.80;2.67;;;;;10.80;101669.00;;;;10083064;29;20609;-81
2023/02/01 11:38:17;;;;;;;10.03;2.30;;;;;10.10;101671.00;;;;10063488;29;20206;-79
2023/02/01 11:43:25;;;;;;;5.73;2.20;;;;;9.90;101671.00;;;;10115515;29;20634;-79
2023/02/01 11:48:32;;;;;;;7.83;2.30;;;;;10.30;101659.00;;;;10108369;29;20246;-80
2023/02/01 11:54:06;;;;;;;9.90;2.00;;;;;10.90;101669.00;;;;10080226;29;20234;-80
2023/02/01 11:59:25;;;;;;;12.77;2.53;;;;;11.10;101677.00;;;;10118356;29;20200;-81
2023/02/01 12:04:54;;;;;;;10.00;2.23;;;;;11.50;101664.00;;;;10117863;29;20283;-80
2023/02/01 12:10:21;;;;;;;9.50;2.10;;;;;12.20;101648.00;;;;10101591;29;20711;-80
2023/02/01 12:15:28;;;;;;;14.40;3.07;;;;;13.50;101637.00;;;;10104966;29;20203;-80
2023/02/01 12:21:02;;;;;;;11.30;2.60;;;;;13.30;101639.00;;;;10087515;29;20199;-79
2023/02/01 12:26:41;;;;;;;9.77;3.03;;;;;13.40;101643.00;;;;10098749;29;20209;-79
2023/02/01 12:32:02;;;;;;;7.30;2.13;;;;;13.60;101647.00;;;;10073025;29;20223;-81
2023/02/01 12:37:32;;;;;;;10.83;2.13;;;;;13.40;101627.00;;;;10089183;29;20531;-80
2023/02/01 12:42:58;;;;;;;8.67;1.77;;;;;12.90;101637.00;;;;10091949;29;20214;-81
2023/02/01 12:48:18;;;;;;;10.37;1.90;;;;;12.80;101626.00;;;;10088500;29;20234;-81
2023/02/01 12:53:43;;;;;;;6.83;1.77;;;;;12.70;101617.00;;;;10089775;29;20207;-80
2023/02/01 12:58:54;;;;;;;8.27;1.57;;;;;13.10;101624.00;;;;10066689;29;20750;-81
2023/02/01 13:04:07;;;;;;;6.87;1.50;;;;;13.60;101612.00;;;;10093849;29;20200;-82
2023/02/01 13:09:26;;;;;;;8.60;1.60;;;;;14.20;101598.00;;;;10091099;29;20322;-80
2023/02/01 13:15:04;;;;;;;7.27;1.80;;;;;13.00;101601.00;;;;10084503;29;20811;-80
2023/02/01 13:20:19;;;;;;;7.17;1.40;;;;;12.40;101597.00;;;;10080494;29;20220;-81
2023/02/01 13:25:35;;;;;;;3.70;1.40;;;;;12.30;101589.00;;;;10096364;29;20298;-81
2023/02/01 13:30:54;;;;;;;9.53;1.60;;;;;12.00;101598.00;;;;10080231;29;20227;-80
2023/02/01 13:36:31;;;;;;;7.63;1.87;;;;;12.20;101589.00;;;;10113320;29;20287;-80
2023/02/01 13:41:53;;;;;;;7.40;1.60;;;;;12.10;101619.00;;;;10101358;29;20215;-81
2023/02/01 13:46:58;;;;;;;7.80;1.83;;;;;11.60;101613.00;;;;10100359;29;20203;-80
2023/02/01 13:52:00;;;;;;;7.10;2.07;;;;;11.30;101620.00;;;;10102035;29;20223;-82
2023/02/01 13:57:04;;;;;;;4.63;1.03;;;;;11.20;101612.00;;;;10101592;29;20214;-81
2023/02/01 14:02:38;;;;;;;7.87;1.87;;;;;11.30;101633.00;;;;10090033;29;20215;-79
2023/02/01 14:08:01;;;;;;;9.67;1.67;;;;;11.30;101619.00;;;;10101798;29;20234;-81
2023/02/01 14:13:23;;;;;;;9.73;2.10;;;;;11.20;101594.00;;;;10080532;29;20199;-81
2023/02/01 14:18:37;;;;;;;6.93;1.80;;;;;11.30;101621.00;;;;10110105;29;20611;-80
2023/02/01 14:23:42;;;;;;;5.73;1.77;;;;;11.10;101624.00;;;;10084883;29;20199;-81
2023/02/01 14:29:15;;;;;;;4.50;1.23;;;;;10.70;101639.00;;;;10099522;29;20226;-81
2023/02/01 14:34:30;;;;;;;5.27;1.60;;;;;10.30;101646.00;;;;10086391;29;20208;-80
2023/02/01 14:39:47;;;;;;;8.47;1.83;;;;;10.20;101642.00;;;;10098779;29;20903;-80
2023/02/01 14:44:51;;;;;;;10.23;1.97;;;;;10.20;101653.00;;;;10094526;29;20250;-80
2023/02/01 14:50:13;;;;;;;12.20;2.23;;;;;10.10;101662.00;;;;10071373;29;20223;-79
2023/02/01 14:55:23;;;;;;;8.50;1.90;;;;;10.00;101635.00;;;;10100888;29;20235;-80
2023/02/01 15:00:29;;;;;;;9.03;1.60;;;;;9.80;101653.00;;;;10066128;29;20246;-80
2023/02/01 15:05:33;;;;;;;19.10;2.37;;;;;9.60;101667.00;;;;10099987;29;20295;-81
2023/02/01 15:10:43;;;;;;;8.00;2.40;;;;;9.50;101676.00;;;;10090134;29;21002;-80
2023/02/01 15:15:44;;;;;;;9.60;1.83;;;;;9.40;101682.00;;;;10085931;29;20204;-80
2023/02/01 15:20:57;;;;;;;4.37;1.93;;;;;9.40;101682.00;;;;10086210;29;20200;-80
2023/02/01 15:26:27;;;;;;;7.70;1.80;;;;;9.30;101683.00;;;;10102243;29;20251;-80
2023/02/01 15:31:35;;;;;;;9.73;2.60;;;;;9.30;101685.00;;;;10059262;29;20234;-81
2023/02/01 15:36:37;;;;;;;11.10;1.93;;;;;9.30;101692.00;;;;10097245;29;20203;-81
2023/02/01 15:41:41;;;;;;;10.00;2.13;;;;;9.20;101691.00;;;;10112667;29;20248;-79
2023/02/01 15:46:46;;;;;;;7.97;2.30;;;;;9.10;101660.00;;;;10066375;29;20211;-81
2023/02/01 15:51:49;;;;;;;10.20;2.10;;;;;9.00;101688.00;;;;10096552;29;20239;-80
2023/02/01 15:56:54;;;;;;;5.93;1.77;;;;;9.00;101669.00;;;;10082485;29;20199;-80
2023/02/01 16:01:56;;;;;;;5.30;1.90;;;;;8.90;101693.00;;;;10080185;29;20238;-79
2023/02/01 16:07:04;;;;;;;11.50;2.40;;;;;8.90;101692.00;;;;10096409;29;20219;-80
2023/02/01 16:12:33;;;;;;;7.27;2.33;;;;;8.80;101702.00;;;;10112025;29;20219;-80
2023/02/01 16:17:35;;;;;;;10.03;2.50;;;;;8.80;101696.00;;;;10091983;29;20251;-80
2023/02/01 16:22:37;;;;;;;15.30;2.47;;;;;8.70;101700.00;;;;10079889;29;20218;-81
2023/02/01 16:27:39;;;;;;;7.93;2.73;;;;;8.70;101714.00;;;;10096308;29;20199;-80
2023/02/01 16:32:41;;;;;;;9.50;2.97;;;;;8.70;101703.00;;;;10093433;29;20227;-81
2023/02/01 16:37:43;;;;;;;8.90;1.90;;;;;8.60;101716.00;;;;10096067;29;20259;-79
2023/02/01 16:42:49;;;;;;;11.10;2.07;;;;;8.60;101728.00;;;;10076411;29;20294;-80
2023/02/01 16:47:54;;;;;;;7.70;2.30;;;;;8.60;101727.00;;;;10081278;29;20715;-80
2023/02/01 16:52:56;;;;;;;12.73;2.90;;;;;8.60;101733.00;;;;10096995;29;20643;-79
2023/02/01 16:57:58;;;;;;;15.97;2.83;;;;;8.60;101728.00;;;;10081685;29;20196;-80
2023/02/01 17:03:00;;;;;;;18.47;2.53;;;;;8.50;101739.00;;;;10081106;29;20714;-80
2023/02/01 17:08:06;;;;;;;9.93;2.67;;;;;8.50;101746.00;;;;10095275;29;20625;-80
2023/02/01 17:13:12;;;;;;;11.07;2.90;;;;;8.50;101748.00;;;;10065300;29;20286;-80
2023/02/01 17:18:16;;;;;;;16.43;2.77;;;;;8.50;101755.00;;;;10100125;29;20240;-80
2023/02/01 17:23:19;;;;;;;12.90;2.70;;;;;8.40;101763.00;;;;10105649;29;20234;-79
2023/02/01 17:28:22;;;;;;;8.07;2.50;;;;;8.40;101756.00;;;;10094492;29;20530;-80
2023/02/01 17:33:30;;;;;;;14.10;2.70;;;;;8.40;101755.00;;;;10089751;29;20254;-79
2023/02/01 17:38:37;;;;;;;13.70;2.63;;;;;8.40;101762.00;;;;10129467;29;20232;-79
2023/02/01 17:43:40;;;;;;;15.20;2.97;;;;;8.40;101766.00;;;;10093150;29;20302;-79
2023/02/01 17:48:42;;;;;;;10.73;2.70;;;;;8.30;101768.00;;;;10073762;29;20206;-81
2023/02/01 17:53:45;;;;;;;15.93;2.93;;;;;8.30;101767.00;;;;10063802;29;20260;-80
2023/02/01 17:58:48;;;;;;;15.07;2.60;;;;;8.30;101766.00;;;;10109892;29;20214;-81
2023/02/01 18:03:50;;;;;;;9.30;2.63;;;;;8.30;101773.00;;;;10075315;29;20280;-79
2023/02/01 18:08:54;;;;;;;11.37;2.73;;;;;8.30;101761.00;;;;10098477;29;20241;-79
2023/02/01 18:13:56;;;;;;;9.57;3.20;;;;;8.30;101768.00;;;;10084557;29;20230;-79
2023/02/01 18:19:00;;;;;;;9.53;2.57;;;;;8.20;101767.00;;;;10082452;29;20671;-79
2023/02/01 18:24:03;;;;;;;13.57;3.40;;;;;8.20;101774.00;;;;10098913;29;20216;-79
2023/02/01 18:29:05;;;;;;;11.17;3.20;;;;;8.00;101768.00;;;;10070885;29;20258;-78
2023/02/01 18:34:09;;;;;;;12.00;2.93;;;;;7.90;101763.00;;;;10069813;29;20203;-78
2023/02/01 18:39:11;;;;;;;13.67;2.80;;;;;7.90;101765.00;;;;10094066;29;20294;-79
2023/02/01 18:44:14;;;;;;;11.40;2.77;;;;;7.90;101770.00;;;;10106397;29;20208;-78
2023/02/01 18:49:17;;;;;;;16.93;3.40;;;;;7.90;101778.00;;;;10095861;29;20232;-79
2023/02/01 18:54:19;;;;;;;12.17;2.67;;;;;8.00;101772.00;;;;10095123;29;20693;-78
2023/02/01 18:59:21;;;;;;;21.33;3.73;;;;;8.00;101768.00;;;;10107906;29;20697;-78
2023/02/01 19:04:23;;;;;;;16.77;3.40;;;;;8.00;101755.00;;;;10066092;29;20242;-79
2023/02/01 19:09:28;;;;;;;12.53;2.70;;;;;8.10;101759.00;;;;10093801;29;20258;-78
2023/02/01 19:14:30;;;;;;;11.90;3.10;;;;;8.10;101755.00;;;;10076431;29;20636;-79
2023/02/01 19:19:31;;;;;;;11.53;3.03;;;;;8.10;101762.00;;;;10075958;29;20208;-78
2023/02/01 19:24:33;;;;;;;11.33;2.83;;;;;8.10;101759.00;;;;10096329;29;20212;-80
2023/02/01 19:29:39;;;;;;;13.43;3.17;;;;;8.10;101755.00;;;;10099450;29;20219;-79
2023/02/01 19:34:41;;;;;;;12.63;3.20;;;;;8.10;101754.00;;;;10099105;29;20200;-79
2023/02/01 19:39:43;;;;;;;13.10;3.97;;;;;8.10;101755.00;;;;10054240;29;20199;-79
2023/02/01 19:44:45;;;;;;;14.30;3.70;;;;;8.10;101765.00;;;;10058074;29;20216;-78
2023/02/01 19:49:47;;;;;;;15.27;4.23;;;;;8.10;101763.00;;;;10091814;29;20545;-79
2023/02/01 19:54:49;;;;;;;14.33;4.17;;;;;8.10;101767.00;;;;10080601;29;20210;-79
2023/02/01 19:59:51;;;;;;;13.13;3.30;;;;;8.10;101766.00;;;;10107997;29;20199;-80
2023/02/01 20:04:53;;;;;;;13.33;3.43;;;;;8.10;101758.00;;;;10090210;29;20199;-78
2023/02/01 20:09:55;;;;;;;20.50;3.93;;;;;8.10;101760.00;;;;10082071;29;20227;-78
2023/02/01 20:14:57;;;;;;;18.67;3.60;;;;;8.10;101757.00;;;;10083716;29;20206;-78
2023/02/01 20:19:59;;;;;;;13.23;3.13;;;;;8.10;101765.00;;;;10085859;29;20219;-79
2023/02/01 20:25:03;;;;;;;9.40;3.57;;;;;8.10;101764.00;;;;10089141;29;20210;-78
2023/02/01 20:30:07;;;;;;;10.07;3.17;;;;;8.10;101772.00;;;;10069783;29;20252;-78
2023/02/01 20:35:09;;;;;;;14.23;3.67;;;;;8.10;101775.00;;;;10078781;29;20235;-78
2023/02/01 20:40:11;;;;;;;21.63;4.17;;;;;8.10;101767.00;;;;10094750;29;20542;-78
2023/02/01 20:45:14;;;;;;;11.00;3.20;;;;;8.10;101764.00;;;;10110888;29;20218;-78
2023/02/01 20:50:16;;;;;;;14.73;3.07;;;;;8.10;101758.00;;;;10109443;29;20254;-78
2023/02/01 20:55:18;;;;;;;13.47;4.07;;;;;8.10;101758.00;;;;10082192;29;20211;-78
2023/02/01 21:00:23;;;;;;;14.40;3.13;;;;;8.10;101765.00;;;;10083884;29;20223;-79
2023/02/01 21:05:38;;;;;;;19.23;4.90;;;;;8.10;101768.00;;;;10068073;29;20211;-79
2023/02/01 21:10:40;;;;;;;18.90;3.63;;;;;8.00;101763.00;;;;10089442;29;20230;-79
2023/02/01 21:15:42;;;;;;;20.43;4.03;;;;;8.00;101773.00;;;;10075943;29;20210;-79
2023/02/01 21:20:46;;;;;;;12.40;3.27;;;;;8.00;101776.00;;;;10097188;29;20231;-79
2023/02/01 21:25:48;;;;;;;14.07;3.90;;;;;8.00;101776.00;;;;10081749;29;20203;-78
2023/02/01 21:30:50;;;;;;;19.93;4.07;;;;;8.10;101779.00;;;;10101099;29;20238;-78
2023/02/01 21:35:52;;;;;;;15.83;5.00;;;;;8.00;101773.00;;;;10071654;29;20251;-78
2023/02/01 21:46:14;;;;;;;18.57;3.63;;;;;8.00;101788.00;;;;10105235;29;20297;-78
2023/02/01 21:51:17;;;;;;;15.40;3.70;;;;;8.00;101789.00;;;;10088165;29;20228;-78
2023/02/01 21:56:19;;;;;;;15.97;4.20;;;;;8.10;101783.00;;;;10080100;29;20208;-78
2023/02/01 22:01:21;;;;;;;30.80;4.27;;;;;8.10;101790.00;;;;10077377;29;20243;-78
2023/02/01 22:06:47;;;;;;;15.70;3.60;;;;;8.10;101799.00;;;;10080291;29;20314;-78
2023/02/01 22:11:50;;;;;;;13.80;3.30;;;;;8.00;101801.00;;;;10113578;29;20319;-79
2023/02/01 22:16:52;;;;;;;13.53;3.43;;;;;8.00;101802.00;;;;10068680;29;20226;-78
2023/02/01 22:21:54;;;;;;;9.93;3.80;;;;;8.00;101803.00;;;;10061599;29;20302;-79
2023/02/01 22:26:56;;;;;;;16.43;4.17;;;;;8.00;101816.00;;;;10083509;29;20248;-78
2023/02/01 22:32:15;;;;;;;10.13;3.40;;;;;8.00;101822.00;;;;10085909;29;20930;-79
2023/02/01 22:37:17;;;;;;;13.63;2.60;;;;;8.00;101824.00;;;;10092451;29;20204;-79
2023/02/01 22:42:19;;;;;;;17.03;2.93;;;;;8.00;101828.00;;;;10098008;29;20213;-80
2023/02/01 22:47:21;;;;;;;15.83;3.33;;;;;8.00;101823.00;;;;10068723;29;20215;-79
2023/02/01 22:52:23;;;;;;;9.67;2.60;;;;;8.00;101828.00;;;;10080319;29;20230;-79
2023/02/01 22:57:25;;;;;;;10.47;2.80;;;;;8.00;101831.00;;;;10097959;29;20216;-80
2023/02/01 23:02:27;;;;;;;9.67;3.47;;;;;8.10;101834.00;;;;10081768;29;20232;-79
2023/02/01 23:07:29;;;;;;;15.80;4.07;;;;;8.10;101831.00;;;;10096959;29;20224;-79
2023/02/01 23:12:30;;;;;;;19.87;3.80;;;;;8.00;101826.00;;;;10081661;29;20233;-79
2023/02/01 23:17:36;;;;;;;16.77;3.27;;;;;8.00;101824.00;;;;10066957;29;20211;-79
2023/02/01 23:22:38;;;;;;;15.83;3.10;;;;;8.10;101828.00;;;;10074321;29;20222;-79
2023/02/01 23:27:40;;;;;;;12.73;3.00;;;;;8.00;101829.00;;;;10059183;29;20263;-79
2023/02/01 23:32:42;;;;;;;11.83;2.83;;;;;8.00;101819.00;;;;10105566;29;20222;-79
2023/02/01 23:37:44;;;;;;;16.17;3.50;;;;;8.00;101830.00;;;;10111721;29;20203;-79
2023/02/01 23:43:56;;;;;;;9.93;2.30;;;;;8.00;101833.00;;;;10066330;29;20623;-79
2023/02/01 23:48:08;;;;;;;12.50;3.03;;;;;8.00;101827.00;;;;10111249;29;20208;-80
2023/02/01 23:53:10;;;;;;;13.80;2.90;;;;;8.00;101833.00;;;;10077217;29;20668;-80
2023/02/01 23:58:12;;;;;;;8.80;2.87;;;;;8.00;101826.00;;;;10077087;29;20264;-79
